Time;durP1;ratioP1;P1;durP2;ratioP2;P2;SDS_P1;SDS_P2;PMS_P1;PMS_P2;Temp;Humidity;BMP_temperature;BMP_pressure;BME280_temperature;BME280_humidity;BME280_pressure;Samples;Min_cycle;Max_cycle;Signal;HPM_P1;HPM_P2
2022/11/29 00:00:26;;;;;;;;;;;;;;;;;;;;;
2022/11/29 00:04:04;;;;;;;;;8.00;8.00;;;;;9.44;71.06;101084.66;6184624;23;73114;-84
2022/11/29 00:07:43;;;;;;;;;;;;;;;;;;;;;
2022/11/29 00:10:20;;;;;;;;;8.25;7.75;;;;;9.45;71.49;101085.53;6176306;23;45422;-85
2022/11/29 00:13:09;;;;;;;;;8.50;8.50;;;;;9.38;71.63;101099.50;6184686;23;45333;-85
2022/11/29 00:16:19;;;;;;;;;;;;;;;;;;;;;
2022/11/29 00:19:17;;;;;;;;;18.50;16.25;;;;;9.27;71.92;101092.44;6183289;23;75255;-84
2022/11/29 00:22:27;;;;;;;;;;;;;;;;;;;;;
2022/11/29 00:25:05;;;;;;;;;8.50;8.00;;;;;9.38;72.12;101103.03;6184898;23;67629;-85
2022/11/29 00:31:35;;;;;;;;;8.75;8.50;;;;;9.33;72.01;101096.84;6040274;23;46337;-84
2022/11/29 00:34:26;;;;;;;;;;;;;;;;;;;;;
2022/11/29 00:37:13;;;;;;;;;;;;;;;;;;;;;
2022/11/29 00:40:38;;;;;;;;;;;;;;;;;;;;;
2022/11/29 00:43:36;;;;;;;;;5.00;5.00;;;;;9.20;72.33;101103.75;6176371;23;46040;-84
2022/11/29 00:49:17;;;;;;;;;7.25;7.00;;;;;9.07;72.56;101091.41;6128096;23;45493;-80
2022/11/29 00:51:45;;;;;;;;;6.25;6.25;;;;;9.05;72.48;101085.25;6182251;23;45392;-81
2022/11/29 00:54:11;;;;;;;;;6.25;6.25;;;;;9.07;72.65;101106.28;6184991;23;46298;-80
2022/11/29 00:56:39;;;;;;;;;7.00;7.00;;;;;9.04;72.70;101102.75;6186406;23;45198;-81
2022/11/29 00:59:07;;;;;;;;;7.50;6.25;;;;;9.09;72.75;101121.19;6158526;23;45727;-81
2022/11/29 01:01:35;;;;;;;;;9.50;8.00;;;;;9.01;73.13;101097.47;6160119;23;45190;-80
2022/11/29 01:04:08;;;;;;;;;7.75;7.75;;;;;8.97;73.20;101093.06;6184740;23;46100;-80
2022/11/29 01:06:36;;;;;;;;;12.25;8.50;;;;;9.08;73.14;101106.28;6181754;23;45376;-81
2022/11/29 01:09:01;;;;;;;;;9.75;9.00;;;;;9.01;73.05;101093.97;6182359;23;45366;-80
2022/11/29 01:11:27;;;;;;;;;10.00;8.75;;;;;9.02;73.02;101109.72;6157214;23;45566;-81
2022/11/29 01:13:56;;;;;;;;;7.75;7.50;;;;;8.99;73.02;101098.34;6184451;23;45293;-81
2022/11/29 01:16:21;;;;;;;;;7.25;7.25;;;;;9.10;73.21;101116.81;6184602;23;45443;-81
2022/11/29 01:18:47;;;;;;;;;8.25;8.25;;;;;9.04;73.36;101122.91;6184379;23;45372;-81
2022/11/29 01:21:19;;;;;;;;;7.00;7.00;;;;;8.98;73.21;101107.06;6186338;23;45341;-80
2022/11/29 01:23:48;;;;;;;;;6.00;5.00;;;;;9.09;73.33;101129.06;6187563;23;45543;-80
2022/11/29 01:26:18;;;;;;;;;8.25;8.25;;;;;9.00;73.43;101118.47;6186913;23;45340;-80
2022/11/29 01:28:50;;;;;;;;;9.25;8.25;;;;;9.06;73.42;101131.63;6185343;23;45645;-80
2022/11/29 01:31:20;;;;;;;;;8.00;5.00;;;;;8.97;73.51;101107.94;6160502;23;45143;-79
2022/11/29 01:33:46;;;;;;;;;7.75;7.75;;;;;8.93;73.43;101111.44;6159761;23;47391;-80
2022/11/29 01:36:15;;;;;;;;;10.00;7.00;;;;;8.95;73.51;101122.78;6160003;23;45409;-80
2022/11/29 01:38:43;;;;;;;;;9.25;9.25;;;;;8.96;73.42;101124.56;6187199;23;45169;-80
2022/11/29 01:41:23;;;;;;;;;6.50;6.50;;;;;8.97;73.53;101127.19;6185991;23;45505;-80
2022/11/29 01:44:10;;;;;;;;;9.00;5.75;;;;;9.09;73.35;101138.66;6186686;23;47264;-80
2022/11/29 01:46:38;;;;;;;;;6.25;5.00;;;;;8.95;73.49;101123.66;6187132;23;45185;-80
2022/11/29 01:49:21;;;;;;;;;6.00;6.00;;;;;9.01;73.39;101144.75;6187081;23;45221;-80
2022/11/29 01:51:59;;;;;;;;;6.25;6.25;;;;;9.09;73.37;101151.81;6160069;23;45440;-80
2022/11/29 01:54:33;;;;;;;;;8.50;7.75;;;;;9.03;73.79;101148.28;6159949;23;46940;-79
2022/11/29 01:57:04;;;;;;;;;7.50;7.50;;;;;9.10;73.77;101159.72;6184728;23;45139;-80
2022/11/29 01:59:30;;;;;;;;;10.00;8.00;;;;;8.99;73.83;101140.34;6159969;23;45211;-80
2022/11/29 02:02:04;;;;;;;;;5.50;5.50;;;;;9.18;73.47;101165.91;6187363;23;45151;-80
2022/11/29 02:04:37;;;;;;;;;10.00;10.00;;;;;9.18;73.73;101159.78;6159290;23;47099;-81
2022/11/29 02:07:03;;;;;;;;;8.50;6.25;;;;;9.17;73.74;101153.66;6187108;23;45356;-80
2022/11/29 02:09:28;;;;;;;;;10.25;6.50;;;;;9.32;73.80;101176.53;6159976;23;45368;-79
2022/11/29 02:12:21;;;;;;;;;11.75;8.75;;;;;9.36;73.87;101175.69;6186138;23;45245;-80
2022/11/29 02:14:54;;;;;;;;;8.00;7.50;;;;;9.38;73.63;101176.59;6186384;23;46125;-80
2022/11/29 02:17:31;;;;;;;;;8.00;6.50;;;;;9.44;73.08;101184.53;6159852;23;46107;-80
2022/11/29 02:20:32;;;;;;;;;11.50;9.50;;;;;9.36;73.17;101156.44;6188062;23;45316;-80
2022/11/29 02:23:19;;;;;;;;;11.00;8.50;;;;;9.56;73.21;101174.97;6188170;23;45404;-81
2022/11/29 02:26:03;;;;;;;;;9.00;8.25;;;;;9.56;73.08;101172.34;6187024;23;46105;-81
2022/11/29 02:28:39;;;;;;;;;13.25;11.50;;;;;9.62;73.17;101180.25;6187004;23;45164;-80
2022/11/29 02:31:43;;;;;;;;;15.25;10.50;;;;;9.64;72.95;101176.78;6187409;23;45439;-80
2022/11/29 02:34:40;;;;;;;;;10.25;10.25;;;;;9.66;72.93;101182.06;6160005;23;45486;-80
2022/11/29 02:37:33;;;;;;;;;10.00;9.00;;;;;9.68;73.20;101181.19;6182631;23;45412;-79
2022/11/29 02:40:12;;;;;;;;;11.75;11.00;;;;;9.67;73.00;101182.03;6159735;23;45652;-79
2022/11/29 02:43:07;;;;;;;;;17.75;17.75;;;;;9.71;72.72;101194.38;6160221;23;45413;-80
2022/11/29 02:46:02;;;;;;;;;18.25;16.50;;;;;9.73;72.69;101197.00;6187281;23;45226;-79
2022/11/29 02:48:27;;;;;;;;;15.00;15.00;;;;;9.76;72.54;101196.16;6128353;23;48394;-79
2022/11/29 02:50:58;;;;;;;;;14.75;13.75;;;;;9.77;72.65;101197.91;6186597;23;45361;-80
2022/11/29 02:53:34;;;;;;;;;14.25;12.75;;;;;9.77;72.68;101188.25;6160884;23;45131;-79
2022/11/29 02:56:24;;;;;;;;;13.25;13.25;;;;;9.79;72.56;101183.03;6187431;23;45182;-79
2022/11/29 02:59:00;;;;;;;;;12.75;12.75;;;;;9.66;72.63;101164.53;6160124;23;47058;-79
2022/11/29 03:01:37;;;;;;;;;15.25;15.25;;;;;9.71;72.54;101175.97;6160227;23;45131;-79
2022/11/29 03:04:08;;;;;;;;;12.00;12.00;;;;;9.80;72.66;101185.66;6187269;23;45186;-79
2022/11/29 03:07:12;;;;;;;;;15.00;13.75;;;;;9.74;72.74;101182.97;6186848;23;45332;-79
2022/11/29 03:09:46;;;;;;;;;12.00;12.00;;;;;9.82;72.53;101196.19;6035486;23;45358;-79
2022/11/29 03:12:34;;;;;;;;;19.75;13.00;;;;;9.83;72.56;101193.56;6128490;23;45318;-79
2022/11/29 03:15:06;;;;;;;;;18.25;15.25;;;;;9.86;73.02;101197.94;6186757;23;45305;-78
2022/11/29 03:18:18;;;;;;;;;15.00;13.75;;;;;9.88;72.52;101198.84;6186374;23;45344;-79
2022/11/29 03:20:53;;;;;;;;;19.25;15.50;;;;;9.86;72.65;101196.22;6158431;23;46630;-79
2022/11/29 03:23:27;;;;;;;;;19.00;15.50;;;;;9.79;72.68;101188.28;6186756;23;45250;-79
2022/11/29 03:26:19;;;;;;;;;14.50;12.25;;;;;9.76;72.64;101181.25;6186278;23;45230;-79
2022/11/29 03:28:59;;;;;;;;;12.00;11.25;;;;;9.89;72.67;101212.03;6184022;23;46109;-79
2022/11/29 03:31:33;;;;;;;;;10.50;9.25;;;;;9.85;72.46;101204.97;6183640;23;47074;-79
2022/11/29 03:34:27;;;;;;;;;11.50;11.25;;;;;9.90;72.36;101215.53;6184290;23;45265;-79
2022/11/29 03:36:58;;;;;;;;;12.00;11.00;;;;;9.91;72.56;101218.16;6159101;23;45187;-79
2022/11/29 03:39:36;;;;;;;;;11.25;9.00;;;;;9.96;72.46;101220.81;6159168;23;45418;-79
2022/11/29 03:42:12;;;;;;;;;10.25;10.25;;;;;9.94;72.43;101226.09;6133910;23;46427;-79
2022/11/29 03:45:04;;;;;;;;;12.00;10.00;;;;;9.87;72.49;101219.00;6156157;23;45147;-79
2022/11/29 03:47:39;;;;;;;;;13.00;11.75;;;;;9.93;72.10;101220.81;6156247;23;45219;-80
2022/11/29 03:50:19;;;;;;;;;14.50;11.25;;;;;10.03;72.41;101245.44;6129059;23;45796;-79
2022/11/29 03:53:02;;;;;;;;;12.75;11.00;;;;;10.05;72.34;101246.28;6155750;23;45602;-79
2022/11/29 03:55:57;;;;;;;;;13.00;11.75;;;;;10.06;72.11;101246.31;6128908;23;45230;-81
2022/11/29 03:58:35;;;;;;;;;12.50;11.75;;;;;9.98;72.33;101226.97;6156497;23;45217;-79
2022/11/29 04:01:16;;;;;;;;;10.75;10.00;;;;;10.08;72.13;101246.34;6156319;23;45417;-79
2022/11/29 04:04:06;;;;;;;;;9.75;9.00;;;;;10.09;72.06;101240.19;6156073;23;46368;-79
2022/11/29 04:07:12;;;;;;;;;9.50;9.50;;;;;10.07;71.94;101245.44;6129103;23;45367;-80
2022/11/29 04:09:48;;;;;;;;;12.00;11.00;;;;;10.07;71.63;101244.56;6155897;23;45296;-79
2022/11/29 04:12:34;;;;;;;;;14.25;12.25;;;;;10.07;72.03;101249.81;6156230;23;45207;-79
2022/11/29 04:15:21;;;;;;;;;12.50;11.75;;;;;9.96;72.01;101236.59;6129009;23;48215;-79
2022/11/29 04:17:59;;;;;;;;;15.00;11.25;;;;;10.06;72.01;101243.69;6128872;23;45237;-79
2022/11/29 04:21:02;;;;;;;;;11.00;11.00;;;;;10.04;71.96;101248.03;6129174;23;45254;-79
2022/11/29 04:23:33;;;;;;;;;12.25;10.75;;;;;10.03;71.92;101262.09;6156949;23;46102;-79
2022/11/29 04:26:22;;;;;;;;;12.25;11.25;;;;;10.01;71.94;101269.06;6157199;23;45753;-79
2022/11/29 04:29:11;;;;;;;;;11.50;10.50;;;;;10.00;71.83;101271.72;6157352;23;45167;-79
2022/11/29 04:31:57;;;;;;;;;14.00;12.00;;;;;9.82;71.83;101243.53;6130411;23;45348;-80
2022/11/29 04:34:44;;;;;;;;;12.25;11.25;;;;;9.95;71.91;101276.94;6130069;23;45457;-80
2022/11/29 04:37:47;;;;;;;;;11.50;10.75;;;;;9.91;72.03;101278.63;6130106;23;46448;-79
2022/11/29 04:40:30;;;;;;;;;10.75;10.50;;;;;9.87;72.01;101276.88;6158628;23;45396;-79
2022/11/29 04:43:20;;;;;;;;;11.75;11.75;;;;;9.85;71.96;101277.72;6159908;23;45383;-79
2022/11/29 04:45:57;;;;;;;;;15.00;13.50;;;;;9.69;72.07;101263.56;6160540;23;45260;-80
2022/11/29 04:48:35;;;;;;;;;11.00;11.00;;;;;9.80;72.09;101287.31;6187158;23;45422;-79
2022/11/29 04:51:00;;;;;;;;;11.00;9.50;;;;;9.79;72.39;101293.47;6159980;23;45235;-79
2022/11/29 04:53:53;;;;;;;;;13.75;11.25;;;;;9.80;72.17;101287.31;6160350;23;45186;-79
2022/11/29 04:56:30;;;;;;;;;14.75;11.50;;;;;9.78;72.46;101282.03;6160088;23;45395;-79
2022/11/29 04:59:24;;;;;;;;;15.00;13.50;;;;;9.68;72.42;101267.09;6187150;23;45559;-79
2022/11/29 05:02:05;;;;;;;;;16.50;16.25;;;;;9.79;72.34;101288.19;6186953;23;45223;-79
2022/11/29 05:04:50;;;;;;;;;16.75;15.00;;;;;9.78;72.11;101295.19;6186891;23;45225;-79
2022/11/29 05:07:32;;;;;;;;;12.00;12.00;;;;;9.67;72.43;101286.34;6187054;23;45183;-79
2022/11/29 05:10:28;;;;;;;;;15.75;14.00;;;;;9.74;72.51;101305.69;6159366;23;47290;-79
2022/11/29 05:13:19;;;;;;;;;15.50;12.50;;;;;9.52;72.56;101281.84;6160088;23;45278;-79
2022/11/29 05:16:07;;;;;;;;;13.75;12.50;;;;;9.58;72.44;101295.03;6186244;23;45281;-79
2022/11/29 05:19:06;;;;;;;;;15.75;15.50;;;;;9.65;72.57;101299.47;6186521;23;45390;-79
2022/11/29 05:22:01;;;;;;;;;13.75;12.50;;;;;9.64;72.79;101313.47;6159564;23;46659;-79
2022/11/29 05:24:47;;;;;;;;;20.25;16.50;;;;;9.64;72.98;101316.09;6160130;23;45154;-79
2022/11/29 05:27:25;;;;;;;;;15.25;15.00;;;;;9.64;72.68;101324.00;6186967;23;45258;-79
2022/11/29 05:30:13;;;;;;;;;22.25;18.50;;;;;9.49;73.13;101290.56;6186124;23;45402;-79
2022/11/29 05:33:07;;;;;;;;;16.75;16.75;;;;;9.61;72.87;101321.34;6186253;23;45408;-79
2022/11/29 05:35:52;;;;;;;;;18.25;17.25;;;;;9.63;72.64;101338.00;6159307;23;45362;-79
2022/11/29 05:38:51;;;;;;;;;17.50;15.00;;;;;9.62;72.88;101336.25;6159839;23;45318;-79
2022/11/29 05:41:35;;;;;;;;;21.50;20.50;;;;;9.62;72.72;101346.78;6158990;23;45424;-79
2022/11/29 05:44:15;;;;;;;;;21.25;16.00;;;;;9.53;72.74;101332.66;6185227;23;46189;-79
2022/11/29 05:46:55;;;;;;;;;20.50;17.00;;;;;9.56;72.90;101349.31;6159721;23;45388;-79
2022/11/29 05:49:30;;;;;;;;;17.25;17.00;;;;;9.45;73.21;101336.06;6187231;23;45171;-79
2022/11/29 05:52:01;;;;;;;;;16.75;14.50;;;;;9.47;72.86;101346.63;6186813;23;45276;-79
2022/11/29 05:54:41;;;;;;;;;12.50;12.50;;;;;9.44;73.20;101354.47;6158927;23;47953;-79
2022/11/29 05:57:19;;;;;;;;;16.50;16.50;;;;;9.43;72.82;101356.19;6186955;23;45245;-79
2022/11/29 05:59:48;;;;;;;;;21.75;17.75;;;;;9.43;73.20;101357.94;6159737;23;45247;-79
2022/11/29 06:02:16;;;;;;;;;17.00;15.50;;;;;9.41;73.39;101363.19;6158089;23;45412;-79
2022/11/29 06:05:02;;;;;;;;;18.00;15.25;;;;;9.27;73.22;101341.13;6159416;23;48238;-79
2022/11/29 06:07:36;;;;;;;;;14.50;14.50;;;;;9.36;73.41;101356.13;6159562;23;45621;-80
2022/11/29 06:10:09;;;;;;;;;16.75;16.75;;;;;9.43;73.32;101378.97;6159204;23;45174;-79
2022/11/29 06:12:38;;;;;;;;;17.50;16.50;;;;;9.41;73.52;101372.81;6186142;23;45207;-79
2022/11/29 06:15:30;;;;;;;;;17.00;17.00;;;;;9.35;73.31;101360.47;6159064;23;46809;-79
2022/11/29 06:18:17;;;;;;;;;19.25;16.25;;;;;9.42;73.30;101380.72;6159580;23;45218;-79
2022/11/29 06:21:18;;;;;;;;;18.00;17.00;;;;;9.40;73.24;101382.44;6185984;23;45494;-79
2022/11/29 06:23:57;;;;;;;;;17.75;17.75;;;;;9.37;73.15;101390.28;6159106;23;45368;-79
2022/11/29 06:26:38;;;;;;;;;19.25;18.75;;;;;9.33;73.25;101392.84;6158526;23;47123;-79
2022/11/29 06:29:35;;;;;;;;;18.75;18.75;;;;;9.23;73.20;101395.38;6158947;23;45242;-79
2022/11/29 06:32:16;;;;;;;;;16.75;15.75;;;;;9.16;73.64;101393.53;6186718;23;45191;-79
2022/11/29 06:34:53;;;;;;;;;23.25;18.25;;;;;9.09;73.55;101398.69;6186291;23;45292;-79
2022/11/29 06:37:27;;;;;;;;;22.25;22.25;;;;;9.06;73.80;101396.91;6159279;23;46268;-79
2022/11/29 06:39:54;;;;;;;;;21.25;21.25;;;;;8.97;73.80;101387.16;6158852;23;45285;-79
2022/11/29 06:42:19;;;;;;;;;34.50;32.50;;;;;9.01;73.99;101404.75;6160259;23;45290;-79
2022/11/29 06:44:45;;;;;;;;;21.25;19.75;;;;;8.98;74.18;101409.06;6186839;23;45215;-79
2022/11/29 06:47:30;;;;;;;;;22.00;22.00;;;;;8.83;74.23;101389.63;6158450;23;48324;-79
2022/11/29 06:50:07;;;;;;;;;22.75;20.25;;;;;8.83;73.90;101391.38;6184086;23;45299;-80
2022/11/29 06:53:11;;;;;;;;;22.00;18.50;;;;;8.86;74.12;101416.78;6186146;23;45412;-80
2022/11/29 06:55:42;;;;;;;;;22.00;20.50;;;;;8.79;74.28;101416.69;6110223;23;45226;-79
2022/11/29 06:58:26;;;;;;;;;23.00;21.25;;;;;8.74;73.95;101425.34;6186128;23;46406;-79
2022/11/29 07:01:20;;;;;;;;;19.00;16.25;;;;;8.61;74.39;101412.06;6159362;23;45667;-79
2022/11/29 07:04:01;;;;;;;;;25.50;24.00;;;;;8.60;74.27;101419.88;6159405;23;45400;-79
2022/11/29 07:06:27;;;;;;;;;19.75;18.50;;;;;8.55;74.54;101427.72;6185821;23;45151;-79
2022/11/29 07:09:00;;;;;;;;;24.25;22.25;;;;;8.43;74.66;101422.25;6184263;23;47884;-78
2022/11/29 07:11:26;;;;;;;;;25.00;22.25;;;;;8.43;74.69;101431.88;6183760;23;46345;-78
2022/11/29 07:13:51;;;;;;;;;22.75;21.75;;;;;8.42;74.77;101422.22;6185969;23;45115;-78
2022/11/29 07:16:29;;;;;;;;;22.75;21.25;;;;;8.36;74.81;101417.72;6185513;23;45342;-79
2022/11/29 07:19:12;;;;;;;;;23.00;20.75;;;;;8.44;74.82;101441.50;6185973;23;46582;-79
2022/11/29 07:22:15;;;;;;;;;25.75;23.00;;;;;8.41;75.01;101441.47;6188695;23;45161;-79
2022/11/29 07:24:53;;;;;;;;;15.50;15.50;;;;;8.30;74.94;101421.13;6186136;23;45281;-79
2022/11/29 07:27:31;;;;;;;;;23.75;21.75;;;;;8.42;74.83;101453.72;6159210;23;45211;-79
2022/11/29 07:30:10;;;;;;;;;23.25;21.00;;;;;8.43;74.92;101450.25;6159077;23;48186;-79
2022/11/29 07:32:47;;;;;;;;;19.25;16.00;;;;;8.35;75.19;101442.22;6158850;23;45394;-79
2022/11/29 07:35:21;;;;;;;;;26.75;25.25;;;;;8.27;74.59;101418.47;6185972;23;45321;-79
2022/11/29 07:38:02;;;;;;;;;21.25;21.25;;;;;8.42;74.67;101451.09;6186232;23;45233;-79
2022/11/29 07:40:44;;;;;;;;;26.00;22.50;;;;;8.41;74.32;101449.34;6184927;23;45371;-79
2022/11/29 07:43:12;;;;;;;;;25.00;22.75;;;;;8.40;74.44;101456.31;6184712;23;45313;-79
2022/11/29 07:45:38;;;;;;;;;26.50;23.25;;;;;8.33;74.40;101447.41;6186021;23;45440;-79
2022/11/29 07:48:04;;;;;;;;;25.25;22.25;;;;;8.35;74.47;101452.69;6158627;23;45265;-78
2022/11/29 07:50:34;;;;;;;;;21.25;20.25;;;;;8.25;73.97;101440.28;6183730;23;47705;-79
2022/11/29 07:52:59;;;;;;;;;32.50;32.00;;;;;8.36;74.23;101460.59;6183526;23;45236;-78
2022/11/29 07:55:26;;;;;;;;;41.50;37.50;;;;;8.31;74.19;101457.03;6185770;23;45163;-79
2022/11/29 07:57:52;;;;;;;;;37.00;34.25;;;;;8.36;74.35;101468.44;6187433;23;45380;-79
2022/11/29 08:00:21;;;;;;;;;57.25;46.75;;;;;8.25;74.40;101449.03;6159649;23;46927;-78
2022/11/29 08:02:50;;;;;;;;;49.00;41.75;;;;;8.33;74.27;101468.41;6187317;23;45226;-79
2022/11/29 08:05:16;;;;;;;;;51.75;42.00;;;;;8.32;74.33;101460.53;6186751;23;45317;-80
2022/11/29 08:07:45;;;;;;;;;44.25;38.75;;;;;8.35;74.44;101465.81;6187305;23;45337;-79
2022/11/29 08:10:13;;;;;;;;;52.00;42.25;;;;;8.31;74.38;101456.13;6186802;23;45197;-79
2022/11/29 08:12:49;;;;;;;;;45.50;38.25;;;;;8.41;74.16;101472.94;6159645;23;45254;-80
2022/11/29 08:15:15;;;;;;;;;32.75;32.75;;;;;8.34;74.40;101475.44;6159999;23;45339;-80
2022/11/29 08:17:40;;;;;;;;;40.25;36.25;;;;;8.43;74.32;101493.09;6187076;23;45392;-80
2022/11/29 08:20:07;;;;;;;;;41.25;37.00;;;;;8.35;74.38;101473.69;6159739;23;48058;-80
2022/11/29 08:22:33;;;;;;;;;42.25;35.50;;;;;8.31;74.45;101467.53;6184826;23;45363;-79
2022/11/29 08:24:58;;;;;;;;;39.50;37.50;;;;;8.38;74.80;101479.00;6159754;23;45348;-79
2022/11/29 08:27:24;;;;;;;;;42.50;35.25;;;;;8.49;74.45;101487.06;6186894;23;45303;-80
2022/11/29 08:29:49;;;;;;;;;47.25;39.75;;;;;8.54;74.61;101490.66;6186620;23;45891;-79
2022/11/29 08:32:16;;;;;;;;;44.75;36.75;;;;;8.32;74.41;101469.28;6187468;23;45350;-79
2022/11/29 08:34:41;;;;;;;;;45.00;36.25;;;;;8.46;74.25;101492.28;6186670;23;45391;-80
2022/11/29 08:37:07;;;;;;;;;46.50;38.00;;;;;8.55;74.12;101518.66;6159635;23;45373;-79
2022/11/29 08:39:35;;;;;;;;;33.50;29.00;;;;;8.46;74.14;101502.78;6186991;23;46261;-79
2022/11/29 08:42:00;;;;;;;;;36.75;34.75;;;;;8.41;74.39;101499.19;6158253;23;45418;-78
2022/11/29 08:44:28;;;;;;;;;36.75;34.00;;;;;8.52;74.31;101524.72;6186692;23;45327;-79
2022/11/29 08:50:00;;;;;;;;;47.75;40.50;;;;;8.39;74.10;101515.78;6187049;23;45305;-79
2022/11/29 08:55:22;;;;;;;;;44.25;38.25;;;;;8.61;74.09;101545.03;6186259;23;45307;-79
2022/11/29 08:57:48;;;;;;;;;38.75;32.00;;;;;8.64;74.11;101552.06;6159392;23;45433;-79
2022/11/29 09:00:15;;;;;;;;;41.50;36.75;;;;;8.69;73.73;101556.53;6186776;23;46147;-80
2022/11/29 09:02:40;;;;;;;;;36.75;33.00;;;;;8.61;73.65;101545.91;6159533;23;45402;-80
2022/11/29 09:05:07;;;;;;;;;38.00;32.00;;;;;8.72;73.76;101567.09;6186697;23;45638;-79
2022/11/29 09:07:33;;;;;;;;;37.50;34.75;;;;;8.61;73.25;101534.53;6184713;23;45878;-80
2022/11/29 09:10:03;;;;;;;;;45.75;38.00;;;;;8.66;73.54;101540.75;6186455;23;46152;-80
2022/11/29 09:12:29;;;;;;;;;40.50;37.50;;;;;8.77;73.30;101556.69;6159522;23;45286;-81
2022/11/29 09:14:57;;;;;;;;;46.50;38.00;;;;;8.73;73.35;101558.34;6186725;23;45167;-78
2022/11/29 09:17:22;;;;;;;;;42.50;36.25;;;;;8.75;73.09;101554.00;6159245;23;45263;-78
2022/11/29 09:19:48;;;;;;;;;53.50;41.75;;;;;8.71;73.09;101548.69;6159525;23;46905;-78
2022/11/29 09:22:13;;;;;;;;;49.75;39.00;;;;;8.76;73.52;101565.38;6186762;23;45182;-80
2022/11/29 09:24:38;;;;;;;;;52.00;40.75;;;;;8.77;73.28;101569.81;6160225;23;45299;-79
2022/11/29 09:27:05;;;;;;;;;42.25;36.00;;;;;8.85;73.46;101573.44;6186665;23;45324;-88
2022/11/29 09:29:30;;;;;;;;;49.50;41.00;;;;;8.94;73.30;101584.09;6184798;23;46464;-84
2022/11/29 09:31:56;;;;;;;;;46.75;37.50;;;;;9.02;73.71;101592.09;6185080;23;45178;-81
2022/11/29 09:34:21;;;;;;;;;49.25;36.75;;;;;8.94;73.52;101563.06;6184733;23;45171;-81
2022/11/29 09:36:47;;;;;;;;;52.00;42.50;;;;;9.12;73.29;101591.38;6186786;23;45249;-81
2022/11/29 09:39:12;;;;;;;;;54.50;43.25;;;;;9.07;73.04;101585.16;6186916;23;45235;-81
2022/11/29 09:41:49;;;;;;;;;49.75;40.00;;;;;9.18;72.87;101607.22;6158985;23;45952;-83
2022/11/29 09:44:21;;;;;;;;;44.25;39.50;;;;;9.25;72.89;101616.13;6160103;23;45308;-82
2022/11/29 09:47:00;;;;;;;;;42.75;32.75;;;;;9.18;72.41;101603.72;6187077;23;45384;-82
2022/11/29 09:49:50;;;;;;;;;40.75;30.25;;;;;9.25;72.57;101613.47;6160075;23;47412;-87
2022/11/29 09:52:39;;;;;;;;;37.00;32.50;;;;;9.20;72.61;101600.28;6161873;23;45255;-87
2022/11/29 09:55:29;;;;;;;;;41.75;36.25;;;;;9.32;72.40;101633.72;6161925;23;45191;-86
2022/11/29 09:58:02;;;;;;;;;45.50;39.75;;;;;9.11;72.19;101599.22;6162391;23;45369;-84
2022/11/29 10:00:33;;;;;;;;;40.75;33.25;;;;;9.25;72.18;101624.00;6163218;23;47606;-83
2022/11/29 10:03:09;;;;;;;;;49.25;38.50;;;;;9.12;72.43;101603.66;6161139;23;45279;-82
2022/11/29 10:05:46;;;;;;;;;42.75;36.75;;;;;9.41;72.17;101651.38;6185088;23;45213;-81
2022/11/29 10:08:14;;;;;;;;;36.25;34.25;;;;;9.42;71.77;101640.91;6185578;23;45337;-90
2022/11/29 10:10:46;;;;;;;;;40.75;34.75;;;;;9.23;71.68;101613.44;6179719;23;46619;-87
2022/11/29 10:13:34;;;;;;;;;40.25;34.75;;;;;9.47;71.65;101646.22;6156803;23;45490;-84
2022/11/29 10:16:17;;;;;;;;;37.50;30.25;;;;;9.52;71.60;101647.19;6158141;23;45482;-88
2022/11/29 10:18:50;;;;;;;;;37.25;31.50;;;;;9.48;71.75;101624.31;6157532;23;45332;-84
2022/11/29 10:21:27;;;;;;;;;31.50;29.25;;;;;9.62;71.61;101640.31;6156346;23;46930;-82
2022/11/29 10:23:58;;;;;;;;;33.00;29.50;;;;;9.65;71.18;101636.00;6182503;23;45376;-81
2022/11/29 10:26:23;;;;;;;;;33.25;31.75;;;;;9.61;71.16;101620.16;6184219;23;45407;-83
2022/11/29 10:28:50;;;;;;;;;36.75;33.75;;;;;9.71;71.13;101627.31;6181951;23;45720;-82
2022/11/29 10:31:26;;;;;;;;;36.00;33.75;;;;;9.79;70.95;101630.03;6155235;23;47183;-80
2022/11/29 10:33:53;;;;;;;;;40.75;36.00;;;;;9.87;70.77;101636.28;6183544;23;45683;-83
2022/11/29 10:36:33;;;;;;;;;39.25;34.50;;;;;9.81;70.76;101623.94;6182175;23;45387;-84
2022/11/29 10:39:04;;;;;;;;;40.50;35.50;;;;;9.93;70.88;101629.34;6156113;23;45143;-83
2022/11/29 10:41:29;;;;;;;;;44.00;37.50;;;;;10.04;70.33;101623.34;6154127;23;48031;-83
2022/11/29 10:43:58;;;;;;;;;41.75;36.75;;;;;10.13;70.56;101634.88;6183616;23;45421;-83
2022/11/29 10:46:30;;;;;;;;;39.00;33.75;;;;;10.20;70.15;101627.06;6184238;23;45278;-85
2022/11/29 10:48:58;;;;;;;;;40.00;35.75;;;;;10.23;70.19;101622.69;6181654;23;45640;-83
2022/11/29 10:51:24;;;;;;;;;37.75;29.75;;;;;10.39;69.83;101639.59;6183783;23;46541;-82
2022/11/29 10:53:53;;;;;;;;;38.50;34.75;;;;;10.32;69.49;101620.22;6157207;23;45602;-83
2022/11/29 10:56:23;;;;;;;;;41.00;33.25;;;;;10.55;69.14;101664.34;6183000;23;45623;-83
2022/11/29 10:58:54;;;;;;;;;45.25;35.00;;;;;10.57;69.34;101658.22;6182346;23;45373;-83
2022/11/29 11:01:20;;;;;;;;;42.00;35.25;;;;;10.54;69.11;101666.09;6155580;23;46131;-81
2022/11/29 11:03:54;;;;;;;;;37.50;32.00;;;;;10.53;69.06;101658.16;6180225;23;46055;-84
2022/11/29 11:06:22;;;;;;;;;38.00;34.75;;;;;10.42;69.03;101630.84;6180621;23;45390;-83
2022/11/29 11:08:53;;;;;;;;;36.75;30.50;;;;;10.49;68.90;101643.22;6155786;23;45486;-81
2022/11/29 11:11:23;;;;;;;;;36.75;33.75;;;;;10.49;68.95;101635.31;6153460;23;48002;-81
2022/11/29 11:13:57;;;;;;;;;41.00;35.25;;;;;10.68;68.83;101658.34;6154896;23;45807;-81
2022/11/29 11:16:25;;;;;;;;;40.75;34.50;;;;;10.59;68.59;101638.06;6182368;23;45293;-80
2022/11/29 11:18:50;;;;;;;;;41.25;36.00;;;;;10.65;68.60;101641.63;6181073;23;45522;-81
2022/11/29 11:21:19;;;;;;;;;40.00;34.75;;;;;10.63;68.23;101635.47;6156215;23;47334;-80
2022/11/29 11:24:03;;;;;;;;;43.75;36.25;;;;;10.72;68.22;101659.25;6182385;23;45381;-82
2022/11/29 11:26:42;;;;;;;;;47.50;35.25;;;;;10.75;68.20;101662.81;6181783;23;45514;-81
2022/11/29 11:29:20;;;;;;;;;35.75;33.00;;;;;10.75;68.31;101665.44;6182605;23;45369;-82
2022/11/29 11:31:56;;;;;;;;;42.00;34.75;;;;;10.77;68.32;101666.34;6179606;23;47077;-82
2022/11/29 11:34:33;;;;;;;;;46.50;39.00;;;;;10.72;68.03;101649.63;6155852;23;45318;-82
2022/11/29 11:37:13;;;;;;;;;42.00;36.00;;;;;10.79;67.94;101656.69;6183939;23;45438;-82
2022/11/29 11:39:39;;;;;;;;;41.75;34.75;;;;;10.75;67.96;101657.56;6156523;23;45489;-82
2022/11/29 11:44:53;;;;;;;;;41.50;36.25;;;;;10.68;68.21;101647.81;6184001;23;45372;-81
2022/11/29 11:47:31;;;;;;;;;37.25;35.00;;;;;10.69;68.05;101644.34;6182722;23;45488;-81
2022/11/29 11:50:03;;;;;;;;;35.25;33.50;;;;;10.82;68.13;101662.03;6157664;23;45346;-82
2022/11/29 11:53:02;;;;;;;;;38.00;33.50;;;;;10.82;67.88;101655.84;6156496;23;48116;-82
2022/11/29 11:55:38;;;;;;;;;37.25;33.50;;;;;10.66;68.12;101631.09;6145600;23;45367;-82
2022/11/29 11:58:34;;;;;;;;;37.00;34.00;;;;;10.69;68.29;101633.78;6182246;23;45333;-82
2022/11/29 12:01:29;;;;;;;;;38.00;34.00;;;;;10.79;67.74;101637.38;6181639;23;45670;-82
2022/11/29 12:04:22;;;;;;;;;37.50;35.00;;;;;10.84;68.18;101658.50;6184587;23;46066;-83
2022/11/29 12:06:55;;;;;;;;;44.50;36.25;;;;;10.70;68.13;101629.41;6156951;23;45346;-81
2022/11/29 12:09:40;;;;;;;;;38.50;34.25;;;;;10.76;68.14;101629.47;6182429;23;45437;-82
2022/11/29 12:12:27;;;;;;;;;42.75;35.25;;;;;10.97;68.24;101653.38;6155292;23;45613;-82
2022/11/29 12:15:01;;;;;;;;;48.75;37.25;;;;;10.87;68.01;101632.19;6157414;23;47216;-83
2022/11/29 12:17:39;;;;;;;;;46.75;38.75;;;;;11.03;67.87;101653.41;6157320;23;45320;-84
2022/11/29 12:20:35;;;;;;;;;47.00;37.75;;;;;11.12;67.87;101662.28;6158095;23;45302;-84
2022/11/29 12:23:20;;;;;;;;;;;;;;;;;;;;;
2022/11/29 12:26:09;;;;;;;;;51.25;39.75;;;;;11.16;67.82;101627.19;6183051;23;74149;-85
2022/11/29 12:28:39;;;;;;;;;43.00;34.50;;;;;11.32;67.68;101639.59;6156632;23;45469;-85
2022/11/29 12:31:36;;;;;;;;;46.00;37.25;;;;;11.39;67.77;101627.38;6185298;23;45240;-85
2022/11/29 12:34:34;;;;;;;;;41.50;35.50;;;;;11.73;67.32;101636.34;6157670;23;45345;-84